createdAt,value
2022-08-01T00:01:32.784Z,99.90
2022-08-01T00:04:00.947Z,99.90
2022-08-01T00:06:29.697Z,99.90
2022-08-01T00:08:57.903Z,99.90
2022-08-01T00:11:27.463Z,99.90
2022-08-01T00:13:56.016Z,99.90
2022-08-01T00:16:24.684Z,99.90
2022-08-01T00:18:52.871Z,99.90
2022-08-01T00:21:21.105Z,99.90
2022-08-01T00:23:49.566Z,99.90
2022-08-01T00:26:17.718Z,99.90
2022-08-01T00:28:47.226Z,99.90
2022-08-01T00:31:15.376Z,99.90
2022-08-01T00:33:43.559Z,99.90
2022-08-01T00:36:11.751Z,99.90
2022-08-01T00:38:39.941Z,99.90
2022-08-01T00:41:08.302Z,99.90
2022-08-01T00:43:36.483Z,99.90
2022-08-01T00:46:06.034Z,99.90
2022-08-01T00:48:34.267Z,99.90
2022-08-01T00:51:02.503Z,99.90
2022-08-01T00:53:51.331Z,99.90
2022-08-01T00:56:20.655Z,99.90
2022-08-01T00:58:48.893Z,99.90
2022-08-01T01:01:21.704Z,99.90
2022-08-01T01:03:59.450Z,99.90
2022-08-01T01:06:37.869Z,99.90
2022-08-01T01:09:17.294Z,99.90
2022-08-01T01:11:51.139Z,99.90
2022-08-01T01:14:29.649Z,99.90
2022-08-01T01:17:00.700Z,99.90
2022-08-01T01:19:33.013Z,99.90
2022-08-01T01:22:20.205Z,99.90
2022-08-01T01:25:00.397Z,99.90
2022-08-01T01:27:41.643Z,99.90
2022-08-01T01:30:12.206Z,99.90
2022-08-01T01:32:43.823Z,99.90
2022-08-01T01:35:16.126Z,99.90
2022-08-01T01:37:45.516Z,99.90
2022-08-01T01:40:15.996Z,99.90
2022-08-01T01:42:45.245Z,99.90
2022-08-01T01:45:16.155Z,99.90
2022-08-01T01:47:45.922Z,99.90
2022-08-01T01:50:15.593Z,99.90
2022-08-01T01:52:46.390Z,99.90
2022-08-01T01:55:15.591Z,99.90
2022-08-01T01:57:46.117Z,99.90
2022-08-01T02:00:17.628Z,99.90
2022-08-01T02:02:46.805Z,99.90
2022-08-01T02:05:15.962Z,99.90
2022-08-01T02:07:45.243Z,99.90
2022-08-01T02:10:19.552Z,99.90
2022-08-01T02:12:51.024Z,99.90
2022-08-01T02:15:21.695Z,99.90
2022-08-01T02:17:51.777Z,99.90
2022-08-01T02:20:20.129Z,99.90
2022-08-01T02:22:52.315Z,99.90
2022-08-01T02:25:25.931Z,99.90
2022-08-01T02:28:01.756Z,99.90
2022-08-01T02:30:36.276Z,99.90
2022-08-01T02:33:15.447Z,99.90
2022-08-01T02:36:29.031Z,99.90
2022-08-01T02:38:38.019Z,99.90
2022-08-01T02:41:10.555Z,99.90
2022-08-01T02:43:42.460Z,99.90
2022-08-01T02:46:18.337Z,99.90
2022-08-01T02:48:48.003Z,99.90
2022-08-01T02:51:18.276Z,99.90
2022-08-01T02:53:48.323Z,99.90
2022-08-01T02:56:19.539Z,99.90
2022-08-01T02:58:49.097Z,99.90
2022-08-01T03:01:21.791Z,99.90
2022-08-01T03:03:50.454Z,99.90
2022-08-01T03:06:19.967Z,99.90
2022-08-01T03:08:50.861Z,99.90
2022-08-01T03:11:19.906Z,99.90
2022-08-01T03:13:50.625Z,99.90
2022-08-01T03:16:23.497Z,99.90
2022-08-01T03:18:53.881Z,99.90
2022-08-01T03:21:25.423Z,99.90
2022-08-01T03:23:58.325Z,99.90
2022-08-01T03:26:30.211Z,99.90
2022-08-01T03:29:00.508Z,99.90
2022-08-01T03:31:31.386Z,99.90
2022-08-01T03:34:04.024Z,99.90
2022-08-01T03:36:35.564Z,99.90
2022-08-01T03:39:06.481Z,99.90
2022-08-01T03:41:39.917Z,99.90
2022-08-01T03:44:12.854Z,99.90
2022-08-01T03:46:47.072Z,99.90
2022-08-01T03:49:19.856Z,99.90
2022-08-01T03:51:51.071Z,99.90
2022-08-01T03:54:23.260Z,99.90
2022-08-01T03:56:53.532Z,99.90
2022-08-01T03:59:22.738Z,99.90
2022-08-01T04:01:52.817Z,99.90
2022-08-01T04:04:21.412Z,99.90
2022-08-01T04:06:52.206Z,99.90
2022-08-01T04:09:20.517Z,99.90
2022-08-01T04:11:48.950Z,99.90
2022-08-01T04:14:17.276Z,99.90
2022-08-01T04:16:45.751Z,99.90
2022-08-01T04:19:16.180Z,99.90
2022-08-01T04:21:44.590Z,99.90
2022-08-01T04:24:15.792Z,99.90
2022-08-01T04:26:47.580Z,99.90
2022-08-01T04:29:20.068Z,99.90
2022-08-01T04:31:51.226Z,99.90
2022-08-01T04:34:28.963Z,99.90
2022-08-01T04:36:59.717Z,99.90
2022-08-01T04:39:31.891Z,99.90
2022-08-01T04:42:04.907Z,99.90
2022-08-01T04:44:34.487Z,99.90
2022-08-01T04:47:04.828Z,99.90
2022-08-01T04:49:49.031Z,99.90
2022-08-01T04:52:22.961Z,99.90
2022-08-01T04:54:52.841Z,99.90
2022-08-01T04:57:21.019Z,99.90
2022-08-01T04:59:50.636Z,99.90
2022-08-01T05:02:20.574Z,99.90
2022-08-01T05:04:50.108Z,99.90
2022-08-01T05:07:18.314Z,99.90
2022-08-01T05:09:47.253Z,99.90
2022-08-01T05:12:15.518Z,99.90
2022-08-01T05:14:43.701Z,99.90
2022-08-01T05:17:12.096Z,99.90
2022-08-01T05:19:41.748Z,99.90
2022-08-01T05:22:12.067Z,99.90
2022-08-01T05:24:41.852Z,99.90
2022-08-01T05:27:11.551Z,99.90
2022-08-01T05:29:44.781Z,99.90
2022-08-01T05:32:13.335Z,99.90
2022-08-01T05:34:41.526Z,99.90
2022-08-01T05:37:11.204Z,99.90
2022-08-01T05:39:39.399Z,99.90
2022-08-01T05:42:08.149Z,99.90
2022-08-01T05:44:36.531Z,99.90
2022-08-01T05:47:04.932Z,99.90
2022-08-01T05:49:33.117Z,99.90
2022-08-01T05:52:03.129Z,99.90
2022-08-01T05:54:33.066Z,99.90
2022-08-01T05:57:02.783Z,99.90
2022-08-01T05:59:31.032Z,99.90
2022-08-01T06:01:59.628Z,99.90
2022-08-01T06:04:27.881Z,99.90
2022-08-01T06:06:56.163Z,99.90
2022-08-01T06:09:24.408Z,99.90
2022-08-01T06:11:53.980Z,99.90
2022-08-01T06:14:22.134Z,99.90
2022-08-01T06:16:50.291Z,99.90
2022-08-01T06:19:18.458Z,99.90
2022-08-01T06:21:46.604Z,99.90
2022-08-01T06:24:14.767Z,99.90
2022-08-01T06:26:43.492Z,99.90
2022-08-01T06:29:14.185Z,99.90
2022-08-01T06:31:42.291Z,99.90
2022-08-01T06:34:10.483Z,99.90
2022-08-01T06:36:38.817Z,99.90
2022-08-01T06:39:07.022Z,99.90
2022-08-01T06:41:35.236Z,99.90
2022-08-01T06:44:05.432Z,99.90
2022-08-01T06:46:35.257Z,99.90
2022-08-01T06:49:04.472Z,99.90
2022-08-01T06:51:32.816Z,99.90
2022-08-01T06:54:00.948Z,99.90
2022-08-01T06:56:29.247Z,99.90
2022-08-01T06:59:01.747Z,99.90
2022-08-01T07:01:30.229Z,99.90
2022-08-01T07:04:03.911Z,99.90
2022-08-01T07:06:32.075Z,99.90
2022-08-01T07:09:08.247Z,99.90
2022-08-01T07:11:37.758Z,99.90
2022-08-01T07:14:05.902Z,99.90
2022-08-01T07:16:34.087Z,99.90
2022-08-01T07:19:03.730Z,99.90
2022-08-01T07:21:39.786Z,99.90
2022-08-01T07:24:13.325Z,99.90
2022-08-01T07:26:52.420Z,99.90
2022-08-01T07:29:23.828Z,98.90
2022-08-01T07:31:52.045Z,98.30
2022-08-01T07:34:21.776Z,97.40
2022-08-01T07:36:49.923Z,95.40
2022-08-01T07:39:18.467Z,94.60
2022-08-01T07:42:06.426Z,92.30
2022-08-01T07:44:35.018Z,91.80
2022-08-01T07:47:03.157Z,91.10
2022-08-01T07:49:37.517Z,88.60
2022-08-01T07:52:08.153Z,90.20
2022-08-01T07:54:36.607Z,87.90
2022-08-01T07:57:05.899Z,84.50
2022-08-01T07:59:34.034Z,83.10
2022-08-01T08:02:02.509Z,79.80
2022-08-01T08:04:32.174Z,80.00
2022-08-01T08:07:00.380Z,78.60
2022-08-01T08:09:28.571Z,78.50
2022-08-01T08:11:56.731Z,75.80
2022-08-01T08:14:32.487Z,75.10
2022-08-01T08:17:02.046Z,75.10
2022-08-01T08:19:38.023Z,73.50
2022-08-01T08:22:07.983Z,73.50
2022-08-01T08:24:36.631Z,74.10
2022-08-01T08:27:14.021Z,72.80
2022-08-01T08:29:42.867Z,73.50
2022-08-01T08:32:11.427Z,71.10
2022-08-01T08:34:41.076Z,72.70
2022-08-01T08:37:09.704Z,72.30
2022-08-01T08:39:42.053Z,70.80
2022-08-01T08:42:12.411Z,71.80
2022-08-01T08:44:43.634Z,71.00
2022-08-01T08:47:19.287Z,70.20
2022-08-01T08:49:51.713Z,70.90
2022-08-01T08:52:22.247Z,71.80
2022-08-01T08:54:52.143Z,72.90
2022-08-01T08:57:22.720Z,71.40
2022-08-01T08:59:53.006Z,70.70
2022-08-01T09:02:21.393Z,70.90
2022-08-01T09:04:51.981Z,69.70
2022-08-01T09:07:20.225Z,68.00
2022-08-01T09:09:50.204Z,69.40
2022-08-01T09:12:21.376Z,70.10
2022-08-01T09:14:54.492Z,70.80
2022-08-01T09:17:23.227Z,73.50
2022-08-01T09:19:54.852Z,72.30
2022-08-01T09:22:24.553Z,71.00
2022-08-01T09:25:04.386Z,72.00
2022-08-01T09:27:32.969Z,72.20
2022-08-01T09:30:11.534Z,70.90
2022-08-01T09:32:56.551Z,71.20
2022-08-01T09:35:30.070Z,71.70
2022-08-01T09:38:16.440Z,69.60
2022-08-01T09:40:54.061Z,70.40
2022-08-01T09:43:23.765Z,70.60
2022-08-01T09:45:53.108Z,70.30
2022-08-01T09:48:28.799Z,69.50
2022-08-01T09:51:04.580Z,70.70
2022-08-01T09:53:51.372Z,70.30
2022-08-01T09:56:21.610Z,67.50
2022-08-01T09:59:02.903Z,66.40
2022-08-01T10:01:44.515Z,67.00
2022-08-01T10:04:15.067Z,66.40
2022-08-01T10:06:48.208Z,67.20
2022-08-01T10:09:39.652Z,69.70
2022-08-01T10:12:15.865Z,69.50
2022-08-01T10:14:46.124Z,68.20
2022-08-01T10:17:18.312Z,68.50
2022-08-01T10:19:50.636Z,68.80
2022-08-01T10:22:21.604Z,67.90
2022-08-01T10:24:51.429Z,65.90
2022-08-01T10:27:21.501Z,64.70
2022-08-01T10:30:19.917Z,64.90
2022-08-01T10:32:54.943Z,64.20
2022-08-01T10:35:46.841Z,64.40
2022-08-01T10:38:14.876Z,64.90
2022-08-01T10:40:44.240Z,66.40
2022-08-01T10:43:12.877Z,66.20
2022-08-01T10:45:42.174Z,68.30
2022-08-01T10:48:20.627Z,68.90
2022-08-01T10:50:51.769Z,67.90
2022-08-01T10:53:31.625Z,68.40
2022-08-01T10:56:13.168Z,68.20
2022-08-01T10:58:45.999Z,67.20
2022-08-01T11:01:23.834Z,67.70
2022-08-01T11:04:05.900Z,67.20
2022-08-01T11:06:54.556Z,68.10
2022-08-01T11:09:41.573Z,66.80
2022-08-01T11:12:23.342Z,66.00
2022-08-01T11:15:29.838Z,65.70
2022-08-01T11:18:00.473Z,65.40
2022-08-01T11:20:32.384Z,65.10
2022-08-01T11:23:35.917Z,66.20
2022-08-01T11:26:29.025Z,66.10
2022-08-01T11:29:21.880Z,66.80
2022-08-01T11:31:51.276Z,67.80
2022-08-01T11:34:19.725Z,67.40
2022-08-01T11:37:04.031Z,67.40
2022-08-01T11:39:38.151Z,67.90
2022-08-01T11:42:22.357Z,69.40
2022-08-01T11:44:52.567Z,71.00
2022-08-01T11:47:41.121Z,71.90
2022-08-01T11:50:34.985Z,72.20
2022-08-01T11:53:04.658Z,71.70
2022-08-01T11:55:33.553Z,71.50
2022-08-01T11:58:04.598Z,71.60
2022-08-01T12:00:33.358Z,70.80
2022-08-01T12:03:04.474Z,70.40
2022-08-01T12:05:35.450Z,69.70
2022-08-01T12:08:04.566Z,69.90
2022-08-01T12:10:49.628Z,70.10
2022-08-01T12:13:20.486Z,68.90
2022-08-01T12:15:51.426Z,69.10
2022-08-01T12:18:23.019Z,68.90
2022-08-01T12:20:58.207Z,68.80
2022-08-01T12:23:26.455Z,68.30
2022-08-01T12:25:55.264Z,69.20
2022-08-01T12:28:25.614Z,69.60
2022-08-01T12:30:54.240Z,69.70
2022-08-01T12:33:23.543Z,70.70
2022-08-01T12:35:51.710Z,70.10
2022-08-01T12:38:23.707Z,70.90
2022-08-01T12:40:53.597Z,70.90
2022-08-01T12:43:28.630Z,71.60
2022-08-01T12:46:00.433Z,71.00
2022-08-01T12:48:30.172Z,71.40
2022-08-01T12:51:01.507Z,71.70
2022-08-01T12:53:41.025Z,72.10
2022-08-01T12:56:10.631Z,71.70
2022-08-01T12:58:40.349Z,71.50
2022-08-01T13:01:10.197Z,71.60
2022-08-01T13:03:39.067Z,71.50
2022-08-01T13:06:13.636Z,72.50
2022-08-01T13:08:42.185Z,71.90
2022-08-01T13:11:15.242Z,72.20
2022-08-01T13:13:48.392Z,71.90
2022-08-01T13:16:30.396Z,71.70
2022-08-01T13:19:06.938Z,72.50
2022-08-01T13:21:53.970Z,72.70
2022-08-01T13:24:27.017Z,72.70
2022-08-01T13:26:59.790Z,72.90
2022-08-01T13:29:39.074Z,73.30
2022-08-01T13:32:27.937Z,73.50
2022-08-01T13:35:04.034Z,73.50
2022-08-01T13:37:32.390Z,73.00
2022-08-01T13:40:00.820Z,72.40
2022-08-01T13:42:30.243Z,71.80
2022-08-01T13:45:00.004Z,72.80
2022-08-01T13:47:31.554Z,72.80
2022-08-01T13:50:01.943Z,72.30
2022-08-01T13:52:30.588Z,73.30
2022-08-01T13:54:58.923Z,72.70
2022-08-01T13:57:36.438Z,73.20
2022-08-01T14:00:10.341Z,73.00
2022-08-01T14:02:38.648Z,72.90
2022-08-01T14:05:07.716Z,72.30
2022-08-01T14:07:35.906Z,71.80
2022-08-01T14:10:18.304Z,70.90
2022-08-01T14:12:47.723Z,69.50
2022-08-01T14:15:37.809Z,70.30
2022-08-01T14:18:07.863Z,70.10
2022-08-01T14:20:38.357Z,70.20
2022-08-01T14:23:08.984Z,70.40
2022-08-01T14:26:00.795Z,70.10
2022-08-01T14:28:28.493Z,70.40
2022-08-01T14:30:58.497Z,70.20
2022-08-01T14:33:27.232Z,69.40
2022-08-01T14:36:05.393Z,69.20
2022-08-01T14:38:46.225Z,69.30
2022-08-01T14:41:15.270Z,70.00
2022-08-01T14:43:43.454Z,70.40
2022-08-01T14:46:14.209Z,70.50
2022-08-01T14:48:42.546Z,70.60
2022-08-01T14:51:10.910Z,71.00
2022-08-01T14:53:39.805Z,71.20
2022-08-01T14:56:11.194Z,71.70
2022-08-01T14:58:39.394Z,72.30
2022-08-01T15:01:07.632Z,73.30
2022-08-01T15:03:37.127Z,74.20
2022-08-01T15:06:07.401Z,74.50
2022-08-01T15:08:35.902Z,75.50
2022-08-01T15:11:04.106Z,76.40
2022-08-01T15:13:32.309Z,77.00
2022-08-01T15:16:00.630Z,77.90
2022-08-01T15:18:29.212Z,78.50
2022-08-01T15:20:59.369Z,78.70
2022-08-01T15:23:27.624Z,79.20
2022-08-01T15:25:55.801Z,79.40
2022-08-01T15:28:24.120Z,79.80
2022-08-01T15:30:52.257Z,80.10
2022-08-01T15:33:22.440Z,80.60
2022-08-01T15:35:52.881Z,81.10
2022-08-01T15:38:22.871Z,81.30
2022-08-01T15:40:51.036Z,81.70
2022-08-01T15:43:19.241Z,81.90
2022-08-01T15:45:48.633Z,82.10
2022-08-01T15:48:17.504Z,82.40
2022-08-01T15:50:45.832Z,82.50
2022-08-01T15:53:14.026Z,82.20
2022-08-01T15:55:43.914Z,81.80
2022-08-01T15:58:20.923Z,81.50
2022-08-01T16:00:49.202Z,81.20
2022-08-01T16:03:17.399Z,81.00
2022-08-01T16:05:45.812Z,80.60
2022-08-01T16:08:15.099Z,80.40
2022-08-01T16:10:44.757Z,80.20
2022-08-01T16:13:13.757Z,80.50
2022-08-01T16:15:42.334Z,79.60
2022-08-01T16:18:13.096Z,79.10
2022-08-01T16:20:45.531Z,78.40
2022-08-01T16:23:14.725Z,78.70
2022-08-01T16:25:45.162Z,78.70
2022-08-01T16:28:14.522Z,79.00
2022-08-01T16:30:50.976Z,79.50
2022-08-01T16:33:41.431Z,80.10
2022-08-01T16:36:19.981Z,80.60
2022-08-01T16:38:49.162Z,80.60
2022-08-01T16:41:19.383Z,80.80
2022-08-01T16:43:53.907Z,81.40
2022-08-01T16:46:25.149Z,81.80
2022-08-01T16:48:53.749Z,82.30
2022-08-01T16:51:22.065Z,82.20
2022-08-01T16:53:50.434Z,82.50
2022-08-01T16:56:20.292Z,82.70
2022-08-01T16:58:48.614Z,82.80
2022-08-01T17:01:53.521Z,83.00
2022-08-01T17:04:06.723Z,82.90
2022-08-01T17:06:35.146Z,83.00
2022-08-01T17:09:04.648Z,83.20
2022-08-01T17:11:34.211Z,83.20
2022-08-01T17:14:02.435Z,83.50
2022-08-01T17:16:30.706Z,84.10
2022-08-01T17:18:58.861Z,84.40
2022-08-01T17:21:27.082Z,84.80
2022-08-01T17:23:55.247Z,85.60
2022-08-01T17:26:23.421Z,86.20
2022-08-01T17:28:53.044Z,86.70
2022-08-01T17:31:21.168Z,86.90
2022-08-01T17:33:54.527Z,87.20
2022-08-01T17:36:23.272Z,87.50
2022-08-01T17:38:51.464Z,88.60
2022-08-01T17:41:19.678Z,89.10
2022-08-01T17:43:48.166Z,89.50
2022-08-01T17:46:18.394Z,90.10
2022-08-01T17:48:46.853Z,90.20
2022-08-01T17:51:19.365Z,90.20
2022-08-01T17:53:56.671Z,90.50
2022-08-01T17:56:26.974Z,90.70
2022-08-01T17:58:55.170Z,90.70
2022-08-01T18:01:26.716Z,90.80
2022-08-01T18:03:55.934Z,90.90
2022-08-01T18:06:26.205Z,91.00
2022-08-01T18:08:56.282Z,91.40
2022-08-01T18:11:27.334Z,91.50
2022-08-01T18:13:56.503Z,91.80
2022-08-01T18:16:26.221Z,92.00
2022-08-01T18:18:56.033Z,92.00
2022-08-01T18:21:24.374Z,91.80
2022-08-01T18:23:52.679Z,91.70
2022-08-01T18:26:21.484Z,91.60
2022-08-01T18:28:49.717Z,91.70
2022-08-01T18:31:20.291Z,91.60
2022-08-01T18:33:50.365Z,91.80
2022-08-01T18:36:33.003Z,92.10
2022-08-01T18:39:04.373Z,92.40
2022-08-01T18:41:33.350Z,92.50
2022-08-01T18:44:04.264Z,92.60
2022-08-01T18:46:37.638Z,92.90
2022-08-01T18:49:08.908Z,93.30
2022-08-01T18:51:43.407Z,93.70
2022-08-01T18:54:12.962Z,93.80
2022-08-01T18:56:41.140Z,94.00
2022-08-01T18:59:09.436Z,94.50
2022-08-01T19:01:37.941Z,94.80
2022-08-01T19:04:07.999Z,95.00
2022-08-01T19:06:36.620Z,95.80
2022-08-01T19:09:05.309Z,96.20
2022-08-01T19:11:34.336Z,96.80
2022-08-01T19:14:03.214Z,97.00
2022-08-01T19:16:31.742Z,97.50
2022-08-01T19:18:59.932Z,98.70
2022-08-01T19:21:30.132Z,99.20
2022-08-01T19:24:15.592Z,99.60
2022-08-01T19:26:47.277Z,99.90
2022-08-01T19:29:19.670Z,99.90
2022-08-01T19:31:49.380Z,99.90
2022-08-01T19:34:20.041Z,99.90
2022-08-01T19:36:57.913Z,99.90
2022-08-01T19:39:28.093Z,99.90
2022-08-01T19:41:57.737Z,99.90
2022-08-01T19:44:28.954Z,99.90
2022-08-01T19:46:57.391Z,99.90
2022-08-01T19:49:25.627Z,99.90
2022-08-01T19:52:01.341Z,99.90
2022-08-01T19:54:34.726Z,99.90
2022-08-01T19:57:05.091Z,99.90
2022-08-01T19:59:35.977Z,99.90
2022-08-01T20:02:05.636Z,99.90
2022-08-01T20:04:34.850Z,99.90
2022-08-01T20:07:05.017Z,99.90
2022-08-01T20:09:34.530Z,99.90
2022-08-01T20:12:02.760Z,99.90
2022-08-01T20:14:30.958Z,99.90
2022-08-01T20:16:59.163Z,99.90
2022-08-01T20:19:29.510Z,99.90
2022-08-01T20:22:02.984Z,99.90
2022-08-01T20:24:41.017Z,99.90
2022-08-01T20:27:11.957Z,99.90
2022-08-01T20:29:41.024Z,99.90
2022-08-01T20:32:09.871Z,99.90
2022-08-01T20:34:40.200Z,99.90
2022-08-01T20:37:13.025Z,99.90
2022-08-01T20:39:45.134Z,99.90
2022-08-01T20:42:13.917Z,99.90
2022-08-01T20:44:42.667Z,99.90
2022-08-01T20:47:11.319Z,99.90
2022-08-01T20:49:39.828Z,99.90
2022-08-01T20:52:11.725Z,99.90
2022-08-01T20:54:41.372Z,99.90
2022-08-01T20:57:17.099Z,99.90
2022-08-01T20:59:56.717Z,99.90
2022-08-01T21:02:36.941Z,99.90
2022-08-01T21:05:10.875Z,99.90
2022-08-01T21:07:43.692Z,99.90
2022-08-01T21:10:13.602Z,99.90
2022-08-01T21:12:50.857Z,99.90
2022-08-01T21:15:28.270Z,99.90
2022-08-01T21:18:02.483Z,99.90
2022-08-01T21:20:33.110Z,99.90
2022-08-01T21:23:10.893Z,99.90
2022-08-01T21:25:39.272Z,99.90
2022-08-01T21:28:08.874Z,99.90
2022-08-01T21:30:37.577Z,99.90
2022-08-01T21:33:06.413Z,99.90
2022-08-01T21:35:35.905Z,99.90
2022-08-01T21:38:05.633Z,99.90
2022-08-01T21:40:35.520Z,99.90
2022-08-01T21:43:04.889Z,99.90
2022-08-01T21:45:34.440Z,99.90
2022-08-01T21:48:02.894Z,99.90
2022-08-01T21:50:39.917Z,99.90
2022-08-01T21:53:16.991Z,99.90
2022-08-01T21:56:00.757Z,99.90
2022-08-01T21:58:50.793Z,99.90
2022-08-01T22:01:51.453Z,99.90
2022-08-01T22:04:29.393Z,99.90
2022-08-01T22:06:58.552Z,99.90
2022-08-01T22:09:29.970Z,99.90
2022-08-01T22:12:03.693Z,99.90
2022-08-01T22:14:33.788Z,99.90
2022-08-01T22:17:03.638Z,99.90
2022-08-01T22:19:45.565Z,99.90
2022-08-01T22:22:29.292Z,99.90
2022-08-01T22:25:04.537Z,99.90
2022-08-01T22:28:08.194Z,99.90
2022-08-01T22:30:22.029Z,99.90
2022-08-01T22:33:07.172Z,99.90
2022-08-01T22:35:41.204Z,99.90
2022-08-01T22:38:09.964Z,99.90
2022-08-01T22:40:40.947Z,99.90
2022-08-01T22:43:18.919Z,99.90
2022-08-01T22:45:52.863Z,99.90
2022-08-01T22:48:29.435Z,99.90
2022-08-01T22:51:10.593Z,99.90
2022-08-01T22:53:46.888Z,99.90
2022-08-01T22:56:15.429Z,99.90
2022-08-01T22:58:45.805Z,99.90
2022-08-01T23:01:21.377Z,99.90
2022-08-01T23:03:58.064Z,99.90
2022-08-01T23:06:35.959Z,99.90
2022-08-01T23:09:04.781Z,99.90
2022-08-01T23:11:33.868Z,99.90
2022-08-01T23:14:03.737Z,99.90
2022-08-01T23:16:32.494Z,99.90
2022-08-01T23:19:02.384Z,99.90
2022-08-01T23:21:32.874Z,99.90
2022-08-01T23:24:02.483Z,99.90
2022-08-01T23:26:31.466Z,99.90
2022-08-01T23:29:00.206Z,99.90
2022-08-01T23:31:55.312Z,99.90
2022-08-01T23:34:20.257Z,99.90
2022-08-01T23:36:48.496Z,99.90
2022-08-01T23:39:16.653Z,99.90
2022-08-01T23:41:56.024Z,99.90
2022-08-01T23:44:27.420Z,99.90
2022-08-01T23:46:55.610Z,99.90
2022-08-01T23:49:25.381Z,99.90
2022-08-01T23:51:54.054Z,99.90
2022-08-01T23:54:22.528Z,99.90
2022-08-01T23:56:52.496Z,99.90
2022-08-01T23:59:20.903Z,99.90
